sensor_id;sensor_type;location;lat;lon;timestamp;P1;durP1;ratioP1;P2;durP2;ratioP2
12476;SDS011;6303;51.504;6.300;2023-07-13T00:01:04;1.67;;;1.27;;
12476;SDS011;6303;51.504;6.300;2023-07-13T00:03:32;1.85;;;1.30;;
12476;SDS011;6303;51.504;6.300;2023-07-13T00:06:00;2.75;;;1.50;;
12476;SDS011;6303;51.504;6.300;2023-07-13T00:08:29;2.08;;;1.48;;
12476;SDS011;6303;51.504;6.300;2023-07-13T00:10:59;1.85;;;1.40;;
12476;SDS011;6303;51.504;6.300;2023-07-13T00:13:26;1.45;;;1.35;;
12476;SDS011;6303;51.504;6.300;2023-07-13T00:15:53;2.55;;;1.40;;
12476;SDS011;6303;51.504;6.300;2023-07-13T00:18:21;1.75;;;1.40;;
12476;SDS011;6303;51.504;6.300;2023-07-13T00:20:48;2.10;;;1.35;;
12476;SDS011;6303;51.504;6.300;2023-07-13T00:23:16;2.05;;;1.40;;
12476;SDS011;6303;51.504;6.300;2023-07-13T00:25:43;1.75;;;1.42;;
12476;SDS011;6303;51.504;6.300;2023-07-13T00:28:12;3.10;;;1.40;;
12476;SDS011;6303;51.504;6.300;2023-07-13T00:30:39;2.80;;;1.58;;
12476;SDS011;6303;51.504;6.300;2023-07-13T00:33:06;1.48;;;1.38;;
12476;SDS011;6303;51.504;6.300;2023-07-13T00:35:33;2.28;;;1.52;;
12476;SDS011;6303;51.504;6.300;2023-07-13T00:38:00;1.77;;;1.50;;
12476;SDS011;6303;51.504;6.300;2023-07-13T00:40:28;2.97;;;1.40;;
12476;SDS011;6303;51.504;6.300;2023-07-13T00:42:56;1.58;;;1.30;;
12476;SDS011;6303;51.504;6.300;2023-07-13T00:48:44;2.00;;;1.50;;
12476;SDS011;6303;51.504;6.300;2023-07-13T00:51:14;1.60;;;1.50;;
12476;SDS011;6303;51.504;6.300;2023-07-13T00:53:45;1.73;;;1.50;;
12476;SDS011;6303;51.504;6.300;2023-07-13T00:56:12;3.10;;;1.40;;
12476;SDS011;6303;51.504;6.300;2023-07-13T00:58:39;1.30;;;1.20;;
12476;SDS011;6303;51.504;6.300;2023-07-13T01:01:06;1.55;;;1.40;;
12476;SDS011;6303;51.504;6.300;2023-07-13T01:03:34;1.38;;;1.25;;
12476;SDS011;6303;51.504;6.300;2023-07-13T01:06:04;1.17;;;1.15;;
12476;SDS011;6303;51.504;6.300;2023-07-13T01:08:31;1.38;;;1.27;;
12476;SDS011;6303;51.504;6.300;2023-07-13T01:10:59;1.55;;;1.42;;
12476;SDS011;6303;51.504;6.300;2023-07-13T01:13:26;1.77;;;1.40;;
12476;SDS011;6303;51.504;6.300;2023-07-13T01:15:55;1.40;;;1.30;;
12476;SDS011;6303;51.504;6.300;2023-07-13T01:18:27;1.80;;;1.40;;
12476;SDS011;6303;51.504;6.300;2023-07-13T01:20:57;1.42;;;1.25;;
12476;SDS011;6303;51.504;6.300;2023-07-13T01:23:26;2.13;;;1.50;;
12476;SDS011;6303;51.504;6.300;2023-07-13T01:25:54;2.13;;;1.50;;
12476;SDS011;6303;51.504;6.300;2023-07-13T01:28:22;1.40;;;1.30;;
12476;SDS011;6303;51.504;6.300;2023-07-13T01:30:52;1.55;;;1.30;;
12476;SDS011;6303;51.504;6.300;2023-07-13T01:33:21;1.70;;;1.30;;
12476;SDS011;6303;51.504;6.300;2023-07-13T01:35:49;2.33;;;1.27;;
12476;SDS011;6303;51.504;6.300;2023-07-13T01:38:19;2.15;;;1.50;;
12476;SDS011;6303;51.504;6.300;2023-07-13T01:40:49;1.50;;;1.30;;
12476;SDS011;6303;51.504;6.300;2023-07-13T01:43:16;1.77;;;1.20;;
12476;SDS011;6303;51.504;6.300;2023-07-13T01:45:44;1.60;;;1.27;;
12476;SDS011;6303;51.504;6.300;2023-07-13T01:48:11;2.05;;;1.30;;
12476;SDS011;6303;51.504;6.300;2023-07-13T01:50:40;1.52;;;1.42;;
12476;SDS011;6303;51.504;6.300;2023-07-13T01:53:07;1.70;;;1.30;;
12476;SDS011;6303;51.504;6.300;2023-07-13T01:55:36;1.40;;;1.20;;
12476;SDS011;6303;51.504;6.300;2023-07-13T01:58:03;1.40;;;1.30;;
12476;SDS011;6303;51.504;6.300;2023-07-13T02:00:31;1.48;;;1.27;;
12476;SDS011;6303;51.504;6.300;2023-07-13T02:03:01;1.73;;;1.27;;
12476;SDS011;6303;51.504;6.300;2023-07-13T02:05:29;1.40;;;1.30;;
12476;SDS011;6303;51.504;6.300;2023-07-13T02:07:56;1.90;;;1.30;;
12476;SDS011;6303;51.504;6.300;2023-07-13T02:10:23;1.52;;;1.20;;
12476;SDS011;6303;51.504;6.300;2023-07-13T02:12:52;1.33;;;1.23;;
12476;SDS011;6303;51.504;6.300;2023-07-13T02:15:19;1.52;;;1.30;;
12476;SDS011;6303;51.504;6.300;2023-07-13T02:17:46;1.45;;;1.23;;
12476;SDS011;6303;51.504;6.300;2023-07-13T02:20:13;2.10;;;1.20;;
12476;SDS011;6303;51.504;6.300;2023-07-13T02:22:40;1.30;;;1.17;;
12476;SDS011;6303;51.504;6.300;2023-07-13T02:25:07;1.52;;;1.27;;
12476;SDS011;6303;51.504;6.300;2023-07-13T02:27:34;1.30;;;1.15;;
12476;SDS011;6303;51.504;6.300;2023-07-13T02:30:03;1.23;;;1.13;;
12476;SDS011;6303;51.504;6.300;2023-07-13T02:32:31;1.42;;;1.27;;
12476;SDS011;6303;51.504;6.300;2023-07-13T02:34:58;1.30;;;1.20;;
12476;SDS011;6303;51.504;6.300;2023-07-13T02:37:28;1.30;;;1.20;;
12476;SDS011;6303;51.504;6.300;2023-07-13T02:39:55;1.20;;;1.13;;
12476;SDS011;6303;51.504;6.300;2023-07-13T02:42:22;1.45;;;1.35;;
12476;SDS011;6303;51.504;6.300;2023-07-13T02:44:49;1.25;;;1.20;;
12476;SDS011;6303;51.504;6.300;2023-07-13T02:47:18;2.00;;;1.20;;
12476;SDS011;6303;51.504;6.300;2023-07-13T02:49:45;1.60;;;1.20;;
12476;SDS011;6303;51.504;6.300;2023-07-13T02:52:12;2.03;;;1.38;;
12476;SDS011;6303;51.504;6.300;2023-07-13T02:54:39;1.48;;;1.10;;
12476;SDS011;6303;51.504;6.300;2023-07-13T02:57:06;1.67;;;1.35;;
12476;SDS011;6303;51.504;6.300;2023-07-13T02:59:33;1.30;;;1.20;;
12476;SDS011;6303;51.504;6.300;2023-07-13T03:02:01;1.58;;;1.40;;
12476;SDS011;6303;51.504;6.300;2023-07-13T03:04:29;1.90;;;1.38;;
12476;SDS011;6303;51.504;6.300;2023-07-13T03:06:57;1.52;;;1.20;;
12476;SDS011;6303;51.504;6.300;2023-07-13T03:09:29;1.30;;;1.20;;
12476;SDS011;6303;51.504;6.300;2023-07-13T03:11:59;1.58;;;1.45;;
12476;SDS011;6303;51.504;6.300;2023-07-13T03:14:29;1.33;;;1.20;;
12476;SDS011;6303;51.504;6.300;2023-07-13T03:16:58;1.30;;;1.20;;
12476;SDS011;6303;51.504;6.300;2023-07-13T03:19:30;1.20;;;1.10;;
12476;SDS011;6303;51.504;6.300;2023-07-13T03:21:57;1.70;;;1.20;;
12476;SDS011;6303;51.504;6.300;2023-07-13T03:24:24;1.10;;;1.10;;
12476;SDS011;6303;51.504;6.300;2023-07-13T03:26:51;1.40;;;1.17;;
12476;SDS011;6303;51.504;6.300;2023-07-13T03:29:19;2.08;;;1.40;;
12476;SDS011;6303;51.504;6.300;2023-07-13T03:31:46;1.83;;;1.23;;
12476;SDS011;6303;51.504;6.300;2023-07-13T03:34:14;2.50;;;1.17;;
12476;SDS011;6303;51.504;6.300;2023-07-13T03:36:42;1.30;;;1.08;;
12476;SDS011;6303;51.504;6.300;2023-07-13T03:39:12;1.85;;;1.25;;
12476;SDS011;6303;51.504;6.300;2023-07-13T03:41:46;1.55;;;1.20;;
12476;SDS011;6303;51.504;6.300;2023-07-13T03:44:13;1.80;;;1.40;;
12476;SDS011;6303;51.504;6.300;2023-07-13T03:46:42;2.13;;;1.30;;
12476;SDS011;6303;51.504;6.300;2023-07-13T03:49:09;4.45;;;1.58;;
12476;SDS011;6303;51.504;6.300;2023-07-13T03:51:37;3.10;;;1.60;;
12476;SDS011;6303;51.504;6.300;2023-07-13T03:54:06;3.28;;;1.60;;
12476;SDS011;6303;51.504;6.300;2023-07-13T03:56:33;3.78;;;1.77;;
12476;SDS011;6303;51.504;6.300;2023-07-13T03:59:02;4.38;;;1.90;;
12476;SDS011;6303;51.504;6.300;2023-07-13T04:01:29;2.92;;;1.60;;
12476;SDS011;6303;51.504;6.300;2023-07-13T04:03:57;4.15;;;1.65;;
12476;SDS011;6303;51.504;6.300;2023-07-13T04:06:26;2.70;;;1.58;;
12476;SDS011;6303;51.504;6.300;2023-07-13T04:08:55;4.20;;;1.65;;
12476;SDS011;6303;51.504;6.300;2023-07-13T04:11:26;2.60;;;1.50;;
12476;SDS011;6303;51.504;6.300;2023-07-13T04:13:55;4.25;;;1.65;;
12476;SDS011;6303;51.504;6.300;2023-07-13T04:16:22;2.22;;;1.33;;
12476;SDS011;6303;51.504;6.300;2023-07-13T04:18:49;2.72;;;1.38;;
12476;SDS011;6303;51.504;6.300;2023-07-13T04:21:19;1.88;;;1.30;;
12476;SDS011;6303;51.504;6.300;2023-07-13T04:23:47;2.75;;;1.67;;
12476;SDS011;6303;51.504;6.300;2023-07-13T04:26:14;1.65;;;1.45;;
12476;SDS011;6303;51.504;6.300;2023-07-13T04:28:42;2.90;;;1.40;;
12476;SDS011;6303;51.504;6.300;2023-07-13T04:31:09;4.95;;;1.80;;
12476;SDS011;6303;51.504;6.300;2023-07-13T04:33:36;3.83;;;1.55;;
12476;SDS011;6303;51.504;6.300;2023-07-13T04:36:04;1.75;;;1.40;;
12476;SDS011;6303;51.504;6.300;2023-07-13T04:38:35;3.22;;;1.40;;
12476;SDS011;6303;51.504;6.300;2023-07-13T04:41:03;2.60;;;1.50;;
12476;SDS011;6303;51.504;6.300;2023-07-13T04:43:31;2.45;;;1.48;;
12476;SDS011;6303;51.504;6.300;2023-07-13T04:46:04;2.85;;;1.60;;
12476;SDS011;6303;51.504;6.300;2023-07-13T04:48:32;2.55;;;1.52;;
12476;SDS011;6303;51.504;6.300;2023-07-13T04:50:59;2.53;;;1.40;;
12476;SDS011;6303;51.504;6.300;2023-07-13T04:53:27;3.00;;;1.50;;
12476;SDS011;6303;51.504;6.300;2023-07-13T04:55:55;2.63;;;1.70;;
12476;SDS011;6303;51.504;6.300;2023-07-13T04:58:23;3.53;;;1.50;;
12476;SDS011;6303;51.504;6.300;2023-07-13T05:00:51;4.25;;;1.83;;
12476;SDS011;6303;51.504;6.300;2023-07-13T05:03:19;3.15;;;1.80;;
12476;SDS011;6303;51.504;6.300;2023-07-13T05:05:54;2.95;;;1.60;;
12476;SDS011;6303;51.504;6.300;2023-07-13T05:08:22;3.70;;;1.90;;
12476;SDS011;6303;51.504;6.300;2023-07-13T05:10:49;1.67;;;1.30;;
12476;SDS011;6303;51.504;6.300;2023-07-13T05:13:17;4.15;;;1.80;;
12476;SDS011;6303;51.504;6.300;2023-07-13T05:15:44;21.27;;;6.82;;
12476;SDS011;6303;51.504;6.300;2023-07-13T05:18:12;26.27;;;8.63;;
12476;SDS011;6303;51.504;6.300;2023-07-13T05:20:40;30.10;;;8.68;;
12476;SDS011;6303;51.504;6.300;2023-07-13T05:23:07;20.05;;;6.63;;
12476;SDS011;6303;51.504;6.300;2023-07-13T05:25:34;12.75;;;4.05;;
12476;SDS011;6303;51.504;6.300;2023-07-13T05:28:01;8.60;;;3.80;;
12476;SDS011;6303;51.504;6.300;2023-07-13T05:30:28;7.85;;;3.58;;
12476;SDS011;6303;51.504;6.300;2023-07-13T05:32:55;7.30;;;3.10;;
12476;SDS011;6303;51.504;6.300;2023-07-13T05:35:22;7.75;;;2.72;;
12476;SDS011;6303;51.504;6.300;2023-07-13T05:37:51;11.35;;;3.20;;
12476;SDS011;6303;51.504;6.300;2023-07-13T05:40:18;6.50;;;2.75;;
12476;SDS011;6303;51.504;6.300;2023-07-13T05:42:45;6.50;;;2.53;;
12476;SDS011;6303;51.504;6.300;2023-07-13T05:45:12;9.27;;;3.47;;
12476;SDS011;6303;51.504;6.300;2023-07-13T05:47:39;8.15;;;3.30;;
12476;SDS011;6303;51.504;6.300;2023-07-13T05:50:06;8.65;;;2.90;;
12476;SDS011;6303;51.504;6.300;2023-07-13T05:52:34;6.60;;;3.17;;
12476;SDS011;6303;51.504;6.300;2023-07-13T05:55:02;6.72;;;2.90;;
12476;SDS011;6303;51.504;6.300;2023-07-13T05:57:30;7.22;;;2.90;;
12476;SDS011;6303;51.504;6.300;2023-07-13T05:59:57;9.18;;;3.53;;
12476;SDS011;6303;51.504;6.300;2023-07-13T06:02:24;6.75;;;3.20;;
12476;SDS011;6303;51.504;6.300;2023-07-13T06:04:51;6.97;;;3.28;;
12476;SDS011;6303;51.504;6.300;2023-07-13T06:07:18;6.15;;;3.45;;
12476;SDS011;6303;51.504;6.300;2023-07-13T06:09:46;7.45;;;3.33;;
12476;SDS011;6303;51.504;6.300;2023-07-13T06:12:14;7.53;;;3.50;;
12476;SDS011;6303;51.504;6.300;2023-07-13T06:14:41;6.45;;;3.33;;
12476;SDS011;6303;51.504;6.300;2023-07-13T06:17:08;7.00;;;3.72;;
12476;SDS011;6303;51.504;6.300;2023-07-13T06:19:35;11.18;;;4.15;;
12476;SDS011;6303;51.504;6.300;2023-07-13T06:22:02;9.27;;;3.60;;
12476;SDS011;6303;51.504;6.300;2023-07-13T06:24:30;7.63;;;3.33;;
12476;SDS011;6303;51.504;6.300;2023-07-13T06:26:57;9.73;;;3.63;;
12476;SDS011;6303;51.504;6.300;2023-07-13T06:29:25;8.02;;;3.22;;
12476;SDS011;6303;51.504;6.300;2023-07-13T06:31:52;6.57;;;3.42;;
12476;SDS011;6303;51.504;6.300;2023-07-13T06:34:19;6.70;;;3.78;;
12476;SDS011;6303;51.504;6.300;2023-07-13T06:36:46;7.63;;;3.47;;
12476;SDS011;6303;51.504;6.300;2023-07-13T06:39:13;7.20;;;2.95;;
12476;SDS011;6303;51.504;6.300;2023-07-13T06:41:40;11.10;;;3.70;;
12476;SDS011;6303;51.504;6.300;2023-07-13T06:44:12;8.57;;;3.58;;
12476;SDS011;6303;51.504;6.300;2023-07-13T06:46:40;8.02;;;3.35;;
12476;SDS011;6303;51.504;6.300;2023-07-13T06:49:08;7.13;;;3.17;;
12476;SDS011;6303;51.504;6.300;2023-07-13T06:51:35;8.10;;;3.70;;
12476;SDS011;6303;51.504;6.300;2023-07-13T06:54:02;7.05;;;3.83;;
12476;SDS011;6303;51.504;6.300;2023-07-13T06:56:29;6.53;;;3.22;;
12476;SDS011;6303;51.504;6.300;2023-07-13T06:58:56;6.32;;;2.80;;
12476;SDS011;6303;51.504;6.300;2023-07-13T07:01:23;7.43;;;3.20;;
12476;SDS011;6303;51.504;6.300;2023-07-13T07:03:52;6.28;;;3.10;;
12476;SDS011;6303;51.504;6.300;2023-07-13T07:06:20;4.38;;;2.67;;
12476;SDS011;6303;51.504;6.300;2023-07-13T07:08:48;5.00;;;2.83;;
12476;SDS011;6303;51.504;6.300;2023-07-13T07:11:17;7.50;;;2.75;;
12476;SDS011;6303;51.504;6.300;2023-07-13T07:13:45;3.33;;;2.50;;
12476;SDS011;6303;51.504;6.300;2023-07-13T07:16:12;5.25;;;2.80;;
12476;SDS011;6303;51.504;6.300;2023-07-13T07:18:39;3.67;;;2.47;;
12476;SDS011;6303;51.504;6.300;2023-07-13T07:21:08;4.13;;;2.58;;
12476;SDS011;6303;51.504;6.300;2023-07-13T07:23:35;4.75;;;2.80;;
12476;SDS011;6303;51.504;6.300;2023-07-13T07:26:02;4.05;;;2.80;;
12476;SDS011;6303;51.504;6.300;2023-07-13T07:28:30;4.53;;;2.60;;
12476;SDS011;6303;51.504;6.300;2023-07-13T07:30:57;5.72;;;2.47;;
12476;SDS011;6303;51.504;6.300;2023-07-13T07:33:25;4.78;;;2.53;;
12476;SDS011;6303;51.504;6.300;2023-07-13T07:35:52;5.35;;;2.55;;
12476;SDS011;6303;51.504;6.300;2023-07-13T07:38:20;3.97;;;2.88;;
12476;SDS011;6303;51.504;6.300;2023-07-13T07:40:47;4.50;;;2.40;;
12476;SDS011;6303;51.504;6.300;2023-07-13T07:43:14;5.15;;;2.50;;
12476;SDS011;6303;51.504;6.300;2023-07-13T07:45:41;4.40;;;2.45;;
12476;SDS011;6303;51.504;6.300;2023-07-13T07:48:11;4.63;;;2.70;;
12476;SDS011;6303;51.504;6.300;2023-07-13T07:50:38;4.07;;;2.45;;
12476;SDS011;6303;51.504;6.300;2023-07-13T07:53:06;5.82;;;2.50;;
12476;SDS011;6303;51.504;6.300;2023-07-13T07:55:36;3.97;;;2.75;;
12476;SDS011;6303;51.504;6.300;2023-07-13T07:58:04;5.68;;;2.47;;
12476;SDS011;6303;51.504;6.300;2023-07-13T08:00:31;3.17;;;2.25;;
12476;SDS011;6303;51.504;6.300;2023-07-13T08:02:58;3.95;;;2.10;;
12476;SDS011;6303;51.504;6.300;2023-07-13T08:05:25;4.18;;;2.35;;
12476;SDS011;6303;51.504;6.300;2023-07-13T08:07:53;3.70;;;2.15;;
12476;SDS011;6303;51.504;6.300;2023-07-13T08:10:20;4.65;;;2.45;;
12476;SDS011;6303;51.504;6.300;2023-07-13T08:12:48;3.67;;;2.20;;
12476;SDS011;6303;51.504;6.300;2023-07-13T08:15:16;4.07;;;2.35;;
12476;SDS011;6303;51.504;6.300;2023-07-13T08:17:45;5.22;;;2.40;;
12476;SDS011;6303;51.504;6.300;2023-07-13T08:20:14;5.30;;;2.47;;
12476;SDS011;6303;51.504;6.300;2023-07-13T08:22:41;4.68;;;2.42;;
12476;SDS011;6303;51.504;6.300;2023-07-13T08:25:08;3.53;;;2.38;;
12476;SDS011;6303;51.504;6.300;2023-07-13T08:27:35;6.00;;;2.55;;
12476;SDS011;6303;51.504;6.300;2023-07-13T08:30:05;4.35;;;2.90;;
12476;SDS011;6303;51.504;6.300;2023-07-13T08:32:33;4.68;;;2.65;;
12476;SDS011;6303;51.504;6.300;2023-07-13T08:35:00;2.60;;;2.05;;
12476;SDS011;6303;51.504;6.300;2023-07-13T08:37:27;5.82;;;2.97;;
12476;SDS011;6303;51.504;6.300;2023-07-13T08:39:54;3.70;;;2.20;;
12476;SDS011;6303;51.504;6.300;2023-07-13T08:42:27;3.47;;;2.40;;
12476;SDS011;6303;51.504;6.300;2023-07-13T08:45:13;4.80;;;2.20;;
12476;SDS011;6303;51.504;6.300;2023-07-13T08:47:47;3.80;;;2.50;;
12476;SDS011;6303;51.504;6.300;2023-07-13T08:50:19;3.92;;;2.60;;
12476;SDS011;6303;51.504;6.300;2023-07-13T08:52:51;4.25;;;2.40;;
12476;SDS011;6303;51.504;6.300;2023-07-13T08:55:21;4.53;;;2.80;;
12476;SDS011;6303;51.504;6.300;2023-07-13T08:57:54;5.35;;;2.92;;
12476;SDS011;6303;51.504;6.300;2023-07-13T09:00:31;3.90;;;2.65;;
12476;SDS011;6303;51.504;6.300;2023-07-13T09:03:04;4.85;;;3.15;;
12476;SDS011;6303;51.504;6.300;2023-07-13T09:05:39;6.68;;;3.70;;
12476;SDS011;6303;51.504;6.300;2023-07-13T09:08:14;7.47;;;3.88;;
12476;SDS011;6303;51.504;6.300;2023-07-13T09:11:00;8.02;;;3.50;;
12476;SDS011;6303;51.504;6.300;2023-07-13T09:13:35;8.07;;;3.30;;
12476;SDS011;6303;51.504;6.300;2023-07-13T09:16:11;8.05;;;3.17;;
12476;SDS011;6303;51.504;6.300;2023-07-13T09:18:39;6.80;;;3.20;;
12476;SDS011;6303;51.504;6.300;2023-07-13T09:21:10;7.40;;;3.20;;
12476;SDS011;6303;51.504;6.300;2023-07-13T09:23:39;6.68;;;3.03;;
12476;SDS011;6303;51.504;6.300;2023-07-13T09:26:10;7.57;;;2.85;;
12476;SDS011;6303;51.504;6.300;2023-07-13T09:28:41;6.28;;;3.28;;
12476;SDS011;6303;51.504;6.300;2023-07-13T09:31:13;7.10;;;3.30;;
12476;SDS011;6303;51.504;6.300;2023-07-13T09:33:42;5.43;;;2.60;;
12476;SDS011;6303;51.504;6.300;2023-07-13T09:36:20;5.28;;;3.00;;
12476;SDS011;6303;51.504;6.300;2023-07-13T09:38:52;7.85;;;3.00;;
12476;SDS011;6303;51.504;6.300;2023-07-13T09:41:26;5.45;;;2.78;;
12476;SDS011;6303;51.504;6.300;2023-07-13T09:44:06;4.95;;;2.90;;
12476;SDS011;6303;51.504;6.300;2023-07-13T09:46:38;4.43;;;2.80;;
12476;SDS011;6303;51.504;6.300;2023-07-13T09:49:09;5.28;;;2.95;;
12476;SDS011;6303;51.504;6.300;2023-07-13T09:51:37;5.22;;;2.75;;
12476;SDS011;6303;51.504;6.300;2023-07-13T09:54:04;5.68;;;2.80;;
12476;SDS011;6303;51.504;6.300;2023-07-13T09:56:31;6.20;;;2.88;;
12476;SDS011;6303;51.504;6.300;2023-07-13T09:58:58;5.75;;;3.03;;
12476;SDS011;6303;51.504;6.300;2023-07-13T10:01:32;6.05;;;2.80;;
12476;SDS011;6303;51.504;6.300;2023-07-13T10:04:03;7.25;;;3.13;;
12476;SDS011;6303;51.504;6.300;2023-07-13T10:06:38;6.32;;;2.80;;
12476;SDS011;6303;51.504;6.300;2023-07-13T10:09:08;3.03;;;2.65;;
12476;SDS011;6303;51.504;6.300;2023-07-13T10:11:36;3.83;;;2.40;;
12476;SDS011;6303;51.504;6.300;2023-07-13T10:14:10;3.42;;;2.60;;
12476;SDS011;6303;51.504;6.300;2023-07-13T10:16:39;4.13;;;2.50;;
12476;SDS011;6303;51.504;6.300;2023-07-13T10:19:12;5.28;;;2.78;;
12476;SDS011;6303;51.504;6.300;2023-07-13T10:21:49;4.20;;;2.67;;
12476;SDS011;6303;51.504;6.300;2023-07-13T10:24:20;7.72;;;2.80;;
12476;SDS011;6303;51.504;6.300;2023-07-13T10:27:00;3.25;;;2.40;;
12476;SDS011;6303;51.504;6.300;2023-07-13T10:29:34;4.15;;;2.40;;
12476;SDS011;6303;51.504;6.300;2023-07-13T10:32:04;2.80;;;2.25;;
12476;SDS011;6303;51.504;6.300;2023-07-13T10:34:38;5.22;;;2.92;;
12476;SDS011;6303;51.504;6.300;2023-07-13T10:37:05;3.83;;;2.50;;
12476;SDS011;6303;51.504;6.300;2023-07-13T10:39:42;3.85;;;2.40;;
12476;SDS011;6303;51.504;6.300;2023-07-13T10:42:11;3.35;;;2.28;;
12476;SDS011;6303;51.504;6.300;2023-07-13T10:44:41;5.03;;;2.55;;
12476;SDS011;6303;51.504;6.300;2023-07-13T10:47:12;4.63;;;2.35;;
12476;SDS011;6303;51.504;6.300;2023-07-13T10:49:44;4.30;;;2.55;;
12476;SDS011;6303;51.504;6.300;2023-07-13T10:55:12;4.60;;;2.42;;
12476;SDS011;6303;51.504;6.300;2023-07-13T10:57:59;4.03;;;2.38;;
12476;SDS011;6303;51.504;6.300;2023-07-13T11:00:30;4.32;;;2.47;;
12476;SDS011;6303;51.504;6.300;2023-07-13T11:02:59;5.13;;;2.33;;
12476;SDS011;6303;51.504;6.300;2023-07-13T11:05:31;3.53;;;2.25;;
12476;SDS011;6303;51.504;6.300;2023-07-13T11:08:03;3.83;;;2.28;;
12476;SDS011;6303;51.504;6.300;2023-07-13T11:10:47;4.05;;;2.20;;
12476;SDS011;6303;51.504;6.300;2023-07-13T11:16:36;3.42;;;2.13;;
12476;SDS011;6303;51.504;6.300;2023-07-13T11:22:13;4.20;;;2.20;;
12476;SDS011;6303;51.504;6.300;2023-07-13T11:24:49;3.80;;;2.30;;
12476;SDS011;6303;51.504;6.300;2023-07-13T11:27:22;3.88;;;2.28;;
12476;SDS011;6303;51.504;6.300;2023-07-13T11:30:06;3.67;;;2.30;;
12476;SDS011;6303;51.504;6.300;2023-07-13T11:32:35;5.13;;;2.13;;
12476;SDS011;6303;51.504;6.300;2023-07-13T11:35:03;4.57;;;2.60;;
12476;SDS011;6303;51.504;6.300;2023-07-13T11:37:31;3.13;;;2.35;;
12476;SDS011;6303;51.504;6.300;2023-07-13T11:39:58;3.03;;;2.05;;
12476;SDS011;6303;51.504;6.300;2023-07-13T11:42:26;5.00;;;2.10;;
12476;SDS011;6303;51.504;6.300;2023-07-13T11:44:53;4.32;;;2.20;;
12476;SDS011;6303;51.504;6.300;2023-07-13T11:47:22;3.65;;;2.20;;
12476;SDS011;6303;51.504;6.300;2023-07-13T11:49:52;5.05;;;1.98;;
12476;SDS011;6303;51.504;6.300;2023-07-13T11:52:21;5.80;;;2.33;;
12476;SDS011;6303;51.504;6.300;2023-07-13T11:54:55;3.45;;;2.05;;
12476;SDS011;6303;51.504;6.300;2023-07-13T11:57:24;4.78;;;2.33;;
12476;SDS011;6303;51.504;6.300;2023-07-13T11:59:54;3.75;;;1.95;;
12476;SDS011;6303;51.504;6.300;2023-07-13T12:02:25;5.13;;;2.10;;
12476;SDS011;6303;51.504;6.300;2023-07-13T12:04:55;2.42;;;1.90;;
12476;SDS011;6303;51.504;6.300;2023-07-13T12:07:22;3.58;;;2.05;;
12476;SDS011;6303;51.504;6.300;2023-07-13T12:09:49;4.25;;;2.40;;
12476;SDS011;6303;51.504;6.300;2023-07-13T12:12:18;4.50;;;2.20;;
12476;SDS011;6303;51.504;6.300;2023-07-13T12:14:50;3.97;;;2.30;;
12476;SDS011;6303;51.504;6.300;2023-07-13T12:17:18;6.53;;;2.72;;
12476;SDS011;6303;51.504;6.300;2023-07-13T12:19:47;3.28;;;2.03;;
12476;SDS011;6303;51.504;6.300;2023-07-13T12:22:15;3.88;;;2.30;;
12476;SDS011;6303;51.504;6.300;2023-07-13T12:24:44;3.78;;;2.30;;
12476;SDS011;6303;51.504;6.300;2023-07-13T12:27:16;2.85;;;2.35;;
12476;SDS011;6303;51.504;6.300;2023-07-13T12:29:49;5.20;;;2.30;;
12476;SDS011;6303;51.504;6.300;2023-07-13T12:32:18;4.20;;;2.65;;
12476;SDS011;6303;51.504;6.300;2023-07-13T12:34:53;4.40;;;2.40;;
12476;SDS011;6303;51.504;6.300;2023-07-13T12:37:21;5.22;;;2.40;;
12476;SDS011;6303;51.504;6.300;2023-07-13T12:39:49;4.00;;;2.25;;
12476;SDS011;6303;51.504;6.300;2023-07-13T12:42:20;3.70;;;2.33;;
12476;SDS011;6303;51.504;6.300;2023-07-13T12:44:52;3.70;;;2.38;;
12476;SDS011;6303;51.504;6.300;2023-07-13T12:47:22;5.00;;;2.40;;
12476;SDS011;6303;51.504;6.300;2023-07-13T12:49:50;2.85;;;2.22;;
12476;SDS011;6303;51.504;6.300;2023-07-13T12:52:22;3.75;;;2.33;;
12476;SDS011;6303;51.504;6.300;2023-07-13T12:54:52;4.93;;;2.47;;
12476;SDS011;6303;51.504;6.300;2023-07-13T12:57:25;3.22;;;2.40;;
12476;SDS011;6303;51.504;6.300;2023-07-13T12:59:53;5.28;;;2.58;;
12476;SDS011;6303;51.504;6.300;2023-07-13T13:02:26;5.40;;;2.50;;
12476;SDS011;6303;51.504;6.300;2023-07-13T13:04:56;5.18;;;2.42;;
12476;SDS011;6303;51.504;6.300;2023-07-13T13:07:24;3.53;;;2.38;;
12476;SDS011;6303;51.504;6.300;2023-07-13T13:09:52;6.60;;;2.38;;
12476;SDS011;6303;51.504;6.300;2023-07-13T13:12:20;4.45;;;2.60;;
12476;SDS011;6303;51.504;6.300;2023-07-13T13:14:50;6.53;;;2.50;;
12476;SDS011;6303;51.504;6.300;2023-07-13T13:17:18;6.15;;;2.63;;
12476;SDS011;6303;51.504;6.300;2023-07-13T13:19:49;4.07;;;2.40;;
12476;SDS011;6303;51.504;6.300;2023-07-13T13:22:18;5.32;;;2.55;;
12476;SDS011;6303;51.504;6.300;2023-07-13T13:24:45;5.85;;;2.33;;
12476;SDS011;6303;51.504;6.300;2023-07-13T13:27:14;3.78;;;2.53;;
12476;SDS011;6303;51.504;6.300;2023-07-13T13:29:43;4.53;;;2.22;;
12476;SDS011;6303;51.504;6.300;2023-07-13T13:32:14;3.63;;;2.45;;
12476;SDS011;6303;51.504;6.300;2023-07-13T13:34:43;4.53;;;2.50;;
12476;SDS011;6303;51.504;6.300;2023-07-13T13:37:16;4.15;;;2.47;;
12476;SDS011;6303;51.504;6.300;2023-07-13T13:39:46;3.38;;;2.28;;
12476;SDS011;6303;51.504;6.300;2023-07-13T13:42:16;4.38;;;2.10;;
12476;SDS011;6303;51.504;6.300;2023-07-13T13:44:46;5.53;;;2.35;;
12476;SDS011;6303;51.504;6.300;2023-07-13T13:47:21;3.20;;;2.40;;
12476;SDS011;6303;51.504;6.300;2023-07-13T13:49:56;5.15;;;2.45;;
12476;SDS011;6303;51.504;6.300;2023-07-13T13:52:26;4.05;;;2.45;;
12476;SDS011;6303;51.504;6.300;2023-07-13T13:54:56;3.78;;;2.17;;
12476;SDS011;6303;51.504;6.300;2023-07-13T13:57:24;3.88;;;1.98;;
12476;SDS011;6303;51.504;6.300;2023-07-13T13:59:54;3.10;;;2.40;;
12476;SDS011;6303;51.504;6.300;2023-07-13T14:02:25;3.83;;;2.50;;
12476;SDS011;6303;51.504;6.300;2023-07-13T14:04:58;2.85;;;2.35;;
12476;SDS011;6303;51.504;6.300;2023-07-13T14:07:28;2.83;;;2.30;;
12476;SDS011;6303;51.504;6.300;2023-07-13T14:09:57;4.63;;;2.40;;
12476;SDS011;6303;51.504;6.300;2023-07-13T14:12:27;3.25;;;2.45;;
12476;SDS011;6303;51.504;6.300;2023-07-13T14:14:56;2.70;;;2.08;;
12476;SDS011;6303;51.504;6.300;2023-07-13T14:17:26;5.20;;;2.38;;
12476;SDS011;6303;51.504;6.300;2023-07-13T14:19:55;3.20;;;2.22;;
12476;SDS011;6303;51.504;6.300;2023-07-13T14:22:25;2.67;;;2.10;;
12476;SDS011;6303;51.504;6.300;2023-07-13T14:24:54;4.93;;;2.17;;
12476;SDS011;6303;51.504;6.300;2023-07-13T14:27:30;2.53;;;2.20;;
12476;SDS011;6303;51.504;6.300;2023-07-13T14:29:58;5.10;;;2.30;;
12476;SDS011;6303;51.504;6.300;2023-07-13T14:32:30;3.15;;;2.33;;
12476;SDS011;6303;51.504;6.300;2023-07-13T14:34:58;3.72;;;2.10;;
12476;SDS011;6303;51.504;6.300;2023-07-13T14:37:27;3.25;;;2.03;;
12476;SDS011;6303;51.504;6.300;2023-07-13T14:39:55;2.85;;;2.33;;
12476;SDS011;6303;51.504;6.300;2023-07-13T14:42:22;3.33;;;2.35;;
12476;SDS011;6303;51.504;6.300;2023-07-13T14:44:49;3.17;;;2.00;;
12476;SDS011;6303;51.504;6.300;2023-07-13T14:47:16;2.63;;;2.05;;
12476;SDS011;6303;51.504;6.300;2023-07-13T14:49:46;2.47;;;1.90;;
12476;SDS011;6303;51.504;6.300;2023-07-13T14:52:14;2.92;;;1.90;;
12476;SDS011;6303;51.504;6.300;2023-07-13T14:54:44;3.65;;;2.00;;
12476;SDS011;6303;51.504;6.300;2023-07-13T14:57:11;2.95;;;1.85;;
12476;SDS011;6303;51.504;6.300;2023-07-13T14:59:39;2.20;;;2.00;;
12476;SDS011;6303;51.504;6.300;2023-07-13T15:02:16;2.22;;;1.92;;
12476;SDS011;6303;51.504;6.300;2023-07-13T15:04:45;2.22;;;2.10;;
12476;SDS011;6303;51.504;6.300;2023-07-13T15:07:13;2.30;;;1.90;;
12476;SDS011;6303;51.504;6.300;2023-07-13T15:09:41;3.20;;;1.90;;
12476;SDS011;6303;51.504;6.300;2023-07-13T15:12:08;2.10;;;1.90;;
12476;SDS011;6303;51.504;6.300;2023-07-13T15:14:36;1.60;;;1.50;;
12476;SDS011;6303;51.504;6.300;2023-07-13T15:17:03;4.05;;;2.05;;
12476;SDS011;6303;51.504;6.300;2023-07-13T15:19:31;1.98;;;1.70;;
12476;SDS011;6303;51.504;6.300;2023-07-13T15:22:00;2.00;;;1.80;;
12476;SDS011;6303;51.504;6.300;2023-07-13T15:24:28;2.70;;;2.15;;